createdAt,value
2019-03-11T00:01:19.286Z,6.80
2019-03-11T00:03:46.905Z,7.03
2019-03-11T00:06:14.529Z,7.43
2019-03-11T00:08:42.093Z,6.70
2019-03-11T00:11:09.515Z,8.07
2019-03-11T00:13:36.951Z,7.63
2019-03-11T00:16:04.457Z,7.33
2019-03-11T00:18:31.958Z,6.63
2019-03-11T00:20:59.245Z,4.70
2019-03-11T00:23:26.583Z,5.07
2019-03-11T00:25:54.158Z,4.07
2019-03-11T00:28:21.750Z,3.47
2019-03-11T00:30:49.259Z,3.13
2019-03-11T00:33:16.721Z,3.27
2019-03-11T00:35:44.121Z,3.30
2019-03-11T00:38:11.462Z,2.67
2019-03-11T00:40:38.875Z,2.40
2019-03-11T00:43:06.310Z,2.90
2019-03-11T00:45:33.892Z,2.20
2019-03-11T00:48:02.695Z,1.90
2019-03-11T00:50:30.259Z,2.17
2019-03-11T00:52:57.803Z,2.07
2019-03-11T00:55:25.372Z,2.23
2019-03-11T00:57:52.704Z,1.80
2019-03-11T01:00:27.449Z,1.67
2019-03-11T01:02:54.871Z,1.70
2019-03-11T01:05:22.222Z,2.07
2019-03-11T01:07:49.650Z,1.43
2019-03-11T01:10:17.847Z,1.50
2019-03-11T01:12:45.427Z,1.50
2019-03-11T01:15:12.721Z,1.50
2019-03-11T01:17:40.015Z,1.70
2019-03-11T01:20:07.458Z,1.53
2019-03-11T01:22:34.887Z,1.80
2019-03-11T01:25:04.783Z,2.07
2019-03-11T01:27:31.762Z,1.83
2019-03-11T01:29:59.274Z,1.90
2019-03-11T01:32:26.874Z,3.20
2019-03-11T01:34:54.411Z,2.37
2019-03-11T01:37:21.931Z,2.50
2019-03-11T01:39:49.357Z,3.03
2019-03-11T01:42:20.551Z,3.33
2019-03-11T01:44:47.939Z,3.17
2019-03-11T01:47:15.358Z,3.27
2019-03-11T01:49:42.760Z,2.97
2019-03-11T01:52:10.271Z,3.43
2019-03-11T01:54:37.692Z,2.73
2019-03-11T01:57:05.130Z,2.97
2019-03-11T01:59:33.636Z,2.90
2019-03-11T02:02:01.137Z,2.90
2019-03-11T02:04:28.489Z,2.80
2019-03-11T02:06:56.086Z,3.37
2019-03-11T02:09:23.478Z,2.50
2019-03-11T02:11:50.929Z,2.87
2019-03-11T02:14:19.020Z,2.63
2019-03-11T02:16:48.526Z,2.77
2019-03-11T02:19:15.870Z,2.30
2019-03-11T02:21:43.145Z,2.57
2019-03-11T02:24:10.509Z,2.15
2019-03-11T02:26:37.814Z,2.50
2019-03-11T02:29:05.219Z,2.30
2019-03-11T02:31:32.532Z,2.57
2019-03-11T02:33:59.830Z,2.50
2019-03-11T02:36:27.313Z,4.43
2019-03-11T02:38:54.730Z,2.87
2019-03-11T02:41:22.154Z,1.90
2019-03-11T02:43:49.591Z,2.27
2019-03-11T02:46:16.971Z,2.37
2019-03-11T02:48:44.430Z,2.30
2019-03-11T02:51:11.986Z,2.03
2019-03-11T02:53:39.521Z,2.30
2019-03-11T02:56:06.824Z,2.87
2019-03-11T02:58:34.230Z,1.87
2019-03-11T03:01:27.220Z,2.10
2019-03-11T03:04:04.196Z,1.87
2019-03-11T03:06:31.607Z,2.23
2019-03-11T03:08:59.418Z,2.60
2019-03-11T03:11:26.848Z,2.20
2019-03-11T03:13:54.139Z,2.20
2019-03-11T03:16:21.471Z,2.90
2019-03-11T03:18:49.039Z,2.37
2019-03-11T03:21:16.463Z,1.87
2019-03-11T03:23:44.011Z,2.40
2019-03-11T03:26:11.455Z,2.10
2019-03-11T03:28:38.782Z,2.50
2019-03-11T03:31:06.136Z,2.87
2019-03-11T03:33:33.644Z,2.80
2019-03-11T03:36:01.138Z,3.80
2019-03-11T03:38:30.898Z,3.30
2019-03-11T03:40:57.828Z,2.97
2019-03-11T03:43:25.266Z,3.53
2019-03-11T03:45:52.611Z,3.00
2019-03-11T03:48:20.092Z,3.27
2019-03-11T03:50:47.509Z,2.90
2019-03-11T03:53:15.011Z,3.60
2019-03-11T03:55:45.880Z,2.93
2019-03-11T03:58:13.329Z,2.70
2019-03-11T04:00:40.706Z,2.73
2019-03-11T04:03:08.182Z,3.70
2019-03-11T04:05:35.932Z,4.60
2019-03-11T04:08:03.328Z,3.83
2019-03-11T04:10:32.498Z,2.77
2019-03-11T04:13:00.546Z,3.33
2019-03-11T04:15:27.980Z,3.13
2019-03-11T04:17:55.465Z,3.13
2019-03-11T04:20:22.974Z,3.20
2019-03-11T04:22:50.544Z,2.50
2019-03-11T04:25:18.141Z,2.10
2019-03-11T04:27:45.413Z,2.67
2019-03-11T04:30:15.058Z,2.40
2019-03-11T04:32:42.585Z,3.20
2019-03-11T04:35:12.753Z,2.23
2019-03-11T04:37:40.026Z,2.50
2019-03-11T04:40:09.187Z,2.80
2019-03-11T04:42:36.632Z,2.07
2019-03-11T04:45:05.038Z,2.60
2019-03-11T04:47:32.569Z,2.23
2019-03-11T04:50:00.401Z,2.33
2019-03-11T04:52:28.226Z,2.47
2019-03-11T04:54:55.600Z,2.40
2019-03-11T04:57:23.592Z,2.97
2019-03-11T04:59:51.777Z,2.70
2019-03-11T05:02:19.301Z,2.30
2019-03-11T05:04:47.401Z,2.43
2019-03-11T05:07:14.916Z,2.30
2019-03-11T05:09:44.559Z,2.40
2019-03-11T05:12:12.015Z,3.70
2019-03-11T05:14:39.525Z,3.00
2019-03-11T05:17:07.399Z,3.70
2019-03-11T05:19:35.114Z,2.37
2019-03-11T05:22:02.470Z,2.30
2019-03-11T05:24:30.244Z,2.90
2019-03-11T05:26:57.844Z,2.30
2019-03-11T05:29:25.302Z,1.90
2019-03-11T05:31:52.881Z,2.30
2019-03-11T05:34:20.513Z,2.10
2019-03-11T05:36:48.147Z,2.30
2019-03-11T05:39:15.538Z,2.13
2019-03-11T05:41:44.294Z,3.00
2019-03-11T05:44:11.738Z,2.13
2019-03-11T05:46:39.278Z,1.87
2019-03-11T05:49:06.657Z,2.00
2019-03-11T05:51:34.023Z,1.87
2019-03-11T05:54:01.508Z,2.03
2019-03-11T05:56:29.236Z,1.47
2019-03-11T05:58:56.686Z,1.63
2019-03-11T06:01:24.218Z,1.80
2019-03-11T06:03:51.629Z,1.72
2019-03-11T06:06:19.127Z,2.10
2019-03-11T06:08:46.570Z,2.20
2019-03-11T06:11:14.074Z,2.72
2019-03-11T06:13:41.530Z,2.37
2019-03-11T06:16:09.178Z,2.63
2019-03-11T06:18:40.735Z,2.33
2019-03-11T06:21:33.594Z,2.13
2019-03-11T06:24:21.948Z,3.40
2019-03-11T06:26:49.638Z,2.40
2019-03-11T06:29:17.189Z,2.20
2019-03-11T06:31:45.249Z,2.30
2019-03-11T06:34:12.762Z,2.77
2019-03-11T06:36:40.219Z,2.33
2019-03-11T06:39:07.763Z,2.70
2019-03-11T06:41:35.359Z,2.20
2019-03-11T06:44:02.938Z,3.13
2019-03-11T06:46:30.694Z,2.40
2019-03-11T06:48:59.498Z,2.43
2019-03-11T06:51:27.018Z,2.30
2019-03-11T06:53:54.387Z,3.33
2019-03-11T06:56:21.993Z,2.07
2019-03-11T06:58:50.622Z,2.10
2019-03-11T07:01:18.450Z,2.23
2019-03-11T07:03:45.990Z,2.10
2019-03-11T07:06:13.446Z,2.07
2019-03-11T07:08:40.900Z,2.03
2019-03-11T07:11:08.489Z,2.77
2019-03-11T07:13:36.296Z,2.27
2019-03-11T07:16:03.878Z,2.10
2019-03-11T07:18:33.266Z,2.30
2019-03-11T07:21:00.737Z,1.80
2019-03-11T07:23:28.710Z,3.20
2019-03-11T07:25:56.222Z,4.23
2019-03-11T07:28:24.931Z,2.03
2019-03-11T07:30:52.534Z,2.10
2019-03-11T07:33:19.837Z,2.33
2019-03-11T07:35:47.422Z,1.90
2019-03-11T07:38:14.760Z,2.03
2019-03-11T07:40:42.380Z,1.50
2019-03-11T07:43:09.833Z,1.60
2019-03-11T07:45:37.309Z,1.80
2019-03-11T07:48:06.807Z,1.50
2019-03-11T07:50:34.323Z,1.10
2019-03-11T07:53:01.676Z,1.30
2019-03-11T07:55:29.554Z,1.50
2019-03-11T07:57:57.053Z,1.13
2019-03-11T08:00:25.767Z,1.40
2019-03-11T08:02:53.239Z,1.40
2019-03-11T08:05:20.689Z,1.30
2019-03-11T08:07:48.552Z,1.40
2019-03-11T08:10:15.967Z,1.43
2019-03-11T08:12:43.583Z,1.30
2019-03-11T08:15:11.834Z,1.23
2019-03-11T08:17:39.484Z,2.00
2019-03-11T08:20:08.485Z,1.10
2019-03-11T08:22:35.995Z,1.33
2019-03-11T08:25:04.522Z,1.40
2019-03-11T08:27:32.351Z,1.57
2019-03-11T08:29:59.938Z,1.63
2019-03-11T08:32:27.554Z,1.37
2019-03-11T08:34:55.154Z,1.30
2019-03-11T08:37:22.718Z,2.17
2019-03-11T08:39:50.147Z,1.70
2019-03-11T08:42:17.494Z,2.30
2019-03-11T08:44:44.812Z,2.40
2019-03-11T08:47:13.202Z,2.30
2019-03-11T08:49:40.961Z,2.30
2019-03-11T08:52:08.459Z,2.00
2019-03-11T08:54:36.083Z,2.00
2019-03-11T08:57:04.418Z,1.77
2019-03-11T08:59:32.534Z,1.70
2019-03-11T09:02:00.128Z,1.90
2019-03-11T09:04:27.859Z,2.07
2019-03-11T09:06:55.530Z,3.57
2019-03-11T09:09:24.469Z,3.67
2019-03-11T09:11:52.030Z,2.70
2019-03-11T09:14:19.623Z,3.20
2019-03-11T09:16:47.275Z,3.60
2019-03-11T09:19:14.954Z,4.10
2019-03-11T09:21:42.603Z,5.20
2019-03-11T09:24:18.843Z,4.20
2019-03-11T09:26:39.360Z,4.60
2019-03-11T09:29:06.951Z,4.00
2019-03-11T09:31:35.542Z,5.33
2019-03-11T09:34:03.027Z,4.17
2019-03-11T09:36:30.614Z,4.23
2019-03-11T09:38:58.125Z,3.77
2019-03-11T09:41:25.531Z,4.07
2019-03-11T09:43:55.012Z,5.03
2019-03-11T09:46:23.484Z,6.40
2019-03-11T09:48:52.112Z,6.63
2019-03-11T09:51:21.049Z,6.47
2019-03-11T09:53:49.409Z,4.87
2019-03-11T09:56:17.836Z,4.00
2019-03-11T09:58:45.179Z,4.50
2019-03-11T10:01:12.879Z,3.87
2019-03-11T10:03:40.408Z,4.70
2019-03-11T10:06:15.282Z,5.47
2019-03-11T10:08:42.987Z,4.50
2019-03-11T10:11:10.527Z,5.17
2019-03-11T10:13:38.171Z,4.57
2019-03-11T10:16:05.790Z,4.50
2019-03-11T10:18:33.515Z,4.30
2019-03-11T10:21:03.354Z,4.53
2019-03-11T10:23:32.306Z,5.50
2019-03-11T10:25:59.986Z,5.50
2019-03-11T10:28:27.494Z,4.57
2019-03-11T10:30:54.997Z,4.30
2019-03-11T10:33:22.633Z,5.07
2019-03-11T10:35:50.028Z,4.10
2019-03-11T10:38:18.469Z,4.47
2019-03-11T10:40:46.004Z,4.37
2019-03-11T10:43:13.690Z,3.50
2019-03-11T10:45:41.040Z,3.20
2019-03-11T10:48:08.994Z,2.47
2019-03-11T10:50:36.494Z,2.70
2019-03-11T10:53:04.062Z,2.50
2019-03-11T10:55:31.702Z,2.83
2019-03-11T10:57:59.918Z,2.50
2019-03-11T11:00:27.846Z,2.40
2019-03-11T11:03:14.745Z,2.03
2019-03-11T11:05:42.230Z,2.80
2019-03-11T11:08:09.772Z,2.33
2019-03-11T11:10:37.218Z,2.00
2019-03-11T11:13:04.831Z,2.13
2019-03-11T11:15:32.745Z,1.80
2019-03-11T11:18:00.407Z,2.07
2019-03-11T11:20:27.805Z,1.90
2019-03-11T11:22:55.365Z,1.40
2019-03-11T11:25:23.296Z,1.50
2019-03-11T11:27:52.402Z,1.10
2019-03-11T11:30:21.498Z,0.80
2019-03-11T11:32:49.517Z,0.60
2019-03-11T11:35:19.498Z,0.60
2019-03-11T11:37:48.055Z,0.50
2019-03-11T11:40:18.193Z,0.60
2019-03-11T11:42:46.100Z,0.40
2019-03-11T11:45:15.634Z,0.40
2019-03-11T11:47:43.165Z,0.50
2019-03-11T11:50:13.660Z,0.60
2019-03-11T11:52:41.475Z,0.63
2019-03-11T11:55:09.240Z,0.90
2019-03-11T11:57:37.589Z,0.77
2019-03-11T12:00:07.395Z,1.00
2019-03-11T12:02:35.269Z,0.97
2019-03-11T12:05:03.675Z,1.00
2019-03-11T12:07:31.484Z,1.23
2019-03-11T12:09:59.239Z,1.07
2019-03-11T12:12:26.782Z,0.70
2019-03-11T12:14:54.397Z,0.97
2019-03-11T12:17:23.518Z,0.80
2019-03-11T12:19:51.183Z,1.10
2019-03-11T12:22:19.637Z,1.47
2019-03-11T12:24:47.174Z,2.00
2019-03-11T12:27:15.000Z,1.60
2019-03-11T12:29:42.411Z,1.90
2019-03-11T12:32:10.007Z,2.00
2019-03-11T12:34:37.602Z,2.60
2019-03-11T12:37:05.197Z,2.90
2019-03-11T12:39:33.942Z,2.30
2019-03-11T12:42:01.561Z,2.33
2019-03-11T12:44:30.091Z,2.27
2019-03-11T12:46:57.802Z,2.30
2019-03-11T12:49:25.364Z,2.27
2019-03-11T12:51:52.918Z,2.60
2019-03-11T12:54:20.570Z,2.00
2019-03-11T12:56:48.057Z,2.70
2019-03-11T12:59:15.630Z,2.07
2019-03-11T13:01:43.228Z,1.73
2019-03-11T13:04:10.645Z,2.50
2019-03-11T13:06:38.651Z,2.03
2019-03-11T13:09:06.491Z,2.57
2019-03-11T13:11:35.847Z,2.47
2019-03-11T13:14:03.367Z,2.80
2019-03-11T13:16:30.956Z,3.23
2019-03-11T13:19:00.438Z,3.10
2019-03-11T13:21:32.111Z,3.23
2019-03-11T13:23:59.730Z,3.67
2019-03-11T13:26:27.316Z,3.73
2019-03-11T13:28:55.099Z,2.90
2019-03-11T13:31:22.549Z,3.10
2019-03-11T13:33:49.976Z,3.12
2019-03-11T13:36:17.430Z,3.60
2019-03-11T13:38:44.938Z,3.10
2019-03-11T13:41:12.499Z,4.13
2019-03-11T13:43:39.999Z,2.53
2019-03-11T13:46:07.557Z,2.30
2019-03-11T13:48:35.090Z,2.00
2019-03-11T13:51:02.494Z,1.97
2019-03-11T13:53:30.074Z,1.97
2019-03-11T13:55:57.664Z,1.77
2019-03-11T13:58:25.257Z,1.80
2019-03-11T14:00:56.699Z,1.70
2019-03-11T14:03:22.282Z,1.60
2019-03-11T14:05:49.683Z,1.77
2019-03-11T14:08:17.317Z,1.10
2019-03-11T14:10:44.766Z,1.23
2019-03-11T14:13:12.467Z,1.43
2019-03-11T14:15:39.905Z,1.40
2019-03-11T14:18:07.423Z,1.63
2019-03-11T14:20:34.950Z,1.13
2019-03-11T14:23:03.100Z,1.27
2019-03-11T14:25:30.828Z,1.40
2019-03-11T14:27:58.322Z,1.10
2019-03-11T14:30:25.732Z,1.10
2019-03-11T14:32:53.399Z,1.20
2019-03-11T14:35:20.895Z,1.10
2019-03-11T14:37:48.969Z,1.50
2019-03-11T14:40:16.535Z,0.90
2019-03-11T14:42:44.332Z,1.70
2019-03-11T14:45:13.307Z,1.10
2019-03-11T14:47:40.815Z,1.07
2019-03-11T14:50:08.791Z,1.33
2019-03-11T14:52:36.679Z,1.60
2019-03-11T14:55:29.086Z,2.77
2019-03-11T14:57:56.697Z,3.90
2019-03-11T15:03:18.451Z,1.87
2019-03-11T15:05:45.991Z,1.50
2019-03-11T15:08:14.442Z,1.33
2019-03-11T15:10:42.079Z,3.20
2019-03-11T15:13:09.711Z,1.82
2019-03-11T15:15:37.200Z,0.90
2019-03-11T15:18:04.932Z,0.83
2019-03-11T15:20:32.538Z,1.10
2019-03-11T15:23:07.750Z,0.90
2019-03-11T15:25:29.635Z,1.23
2019-03-11T15:27:57.346Z,1.33
2019-03-11T15:30:24.956Z,1.00
2019-03-11T15:32:52.482Z,0.90
2019-03-11T15:35:20.573Z,1.37
2019-03-11T15:37:51.912Z,1.20
2019-03-11T15:40:19.529Z,1.30
2019-03-11T15:42:47.516Z,1.40
2019-03-11T15:45:15.147Z,1.63
2019-03-11T15:47:43.110Z,1.87
2019-03-11T15:50:12.909Z,2.20
2019-03-11T15:52:40.504Z,2.20
2019-03-11T15:55:09.214Z,0.80
2019-03-11T15:57:39.193Z,1.60
2019-03-11T16:00:08.101Z,2.20
2019-03-11T16:02:35.826Z,2.33
2019-03-11T16:05:04.165Z,1.70
2019-03-11T16:07:31.705Z,1.27
2019-03-11T16:09:59.182Z,2.10
2019-03-11T16:12:26.723Z,1.40
2019-03-11T16:14:54.068Z,1.50
2019-03-11T16:17:21.720Z,1.73
2019-03-11T16:19:50.095Z,1.90
2019-03-11T16:22:24.104Z,1.30
2019-03-11T16:24:46.857Z,1.40
2019-03-11T16:27:15.132Z,1.97
2019-03-11T16:29:43.075Z,2.10
2019-03-11T16:32:12.009Z,2.03
2019-03-11T16:34:39.839Z,2.43
2019-03-11T16:37:07.327Z,3.07
2019-03-11T16:39:35.879Z,3.20
2019-03-11T16:42:03.486Z,2.90
2019-03-11T16:44:30.914Z,3.80
2019-03-11T16:46:58.548Z,3.90
2019-03-11T16:49:26.009Z,3.30
2019-03-11T16:51:53.399Z,2.83
2019-03-11T16:54:20.955Z,2.53
2019-03-11T16:56:48.408Z,2.73
2019-03-11T16:59:16.145Z,1.90
2019-03-11T17:01:43.603Z,2.30
2019-03-11T17:04:11.683Z,3.60
2019-03-11T17:06:39.145Z,3.93
2019-03-11T17:09:08.508Z,4.63
2019-03-11T17:11:37.885Z,4.90
2019-03-11T17:14:05.473Z,5.20
2019-03-11T17:16:32.923Z,6.17
2019-03-11T17:19:01.630Z,6.83
2019-03-11T17:21:29.191Z,6.47
2019-03-11T17:23:56.683Z,5.77
2019-03-11T17:26:23.969Z,5.37
2019-03-11T17:28:52.641Z,5.40
2019-03-11T17:31:23.062Z,4.20
2019-03-11T17:33:50.520Z,4.43
2019-03-11T17:36:18.252Z,5.72
2019-03-11T17:38:45.726Z,4.40
2019-03-11T17:41:13.411Z,3.40
2019-03-11T17:43:41.054Z,3.57
2019-03-11T17:46:08.850Z,4.40
2019-03-11T17:48:36.728Z,4.30
2019-03-11T17:51:04.523Z,4.40
2019-03-11T17:53:33.111Z,4.20
2019-03-11T17:56:00.623Z,4.57
2019-03-11T17:58:28.221Z,4.60
2019-03-11T18:00:56.019Z,5.77
2019-03-11T18:03:23.665Z,5.77
2019-03-11T18:05:51.254Z,4.43
2019-03-11T18:08:18.918Z,4.47
2019-03-11T18:10:46.428Z,3.83
2019-03-11T18:13:15.786Z,2.93
2019-03-11T18:15:43.418Z,3.00
2019-03-11T18:18:13.888Z,3.27
2019-03-11T18:20:41.483Z,4.27
2019-03-11T18:23:09.314Z,3.37
2019-03-11T18:25:38.728Z,3.77
2019-03-11T18:28:06.134Z,2.43
2019-03-11T18:30:34.253Z,4.57
2019-03-11T18:33:01.839Z,3.37
2019-03-11T18:35:29.489Z,3.40
2019-03-11T18:38:04.493Z,4.33
2019-03-11T18:40:29.698Z,3.43
2019-03-11T18:42:57.326Z,2.40
2019-03-11T18:45:25.111Z,2.30
2019-03-11T18:47:52.602Z,2.30
2019-03-11T18:50:20.316Z,3.33
2019-03-11T18:52:47.798Z,2.27
2019-03-11T18:55:15.306Z,2.20
2019-03-11T18:57:42.910Z,1.57
2019-03-11T19:00:11.894Z,2.17
2019-03-11T19:02:39.430Z,2.30
2019-03-11T19:05:07.872Z,2.20
2019-03-11T19:07:35.362Z,2.43
2019-03-11T19:10:03.188Z,2.30
2019-03-11T19:12:30.953Z,2.33
2019-03-11T19:14:58.417Z,2.10
2019-03-11T19:17:27.044Z,3.07
2019-03-11T19:19:54.672Z,2.20
2019-03-11T19:22:22.234Z,2.73
2019-03-11T19:24:49.852Z,2.37
2019-03-11T19:27:17.332Z,2.37
2019-03-11T19:29:44.892Z,2.73
2019-03-11T19:32:12.676Z,3.50
2019-03-11T19:34:40.159Z,2.57
2019-03-11T19:37:07.584Z,2.70
2019-03-11T19:39:35.340Z,2.47
2019-03-11T19:42:02.845Z,3.40
2019-03-11T19:44:30.501Z,2.70
2019-03-11T19:46:58.098Z,2.80
2019-03-11T19:49:25.573Z,3.27
2019-03-11T19:51:53.162Z,2.63
2019-03-11T19:54:20.630Z,3.00
2019-03-11T19:56:48.234Z,3.70
2019-03-11T19:59:15.787Z,3.37
2019-03-11T20:01:43.356Z,4.00
2019-03-11T20:04:11.023Z,3.63
2019-03-11T20:06:38.619Z,2.80
2019-03-11T20:09:07.614Z,2.40
2019-03-11T20:11:37.135Z,2.63
2019-03-11T20:14:04.903Z,3.00
2019-03-11T20:16:32.564Z,2.93
2019-03-11T20:19:00.162Z,2.40
2019-03-11T20:21:27.825Z,2.10
2019-03-11T20:23:55.234Z,2.00
2019-03-11T20:26:22.847Z,2.33
2019-03-11T20:28:50.339Z,2.10
2019-03-11T20:31:17.973Z,4.20
2019-03-11T20:33:45.812Z,2.17
2019-03-11T20:36:20.633Z,2.77
2019-03-11T20:38:42.929Z,2.37
2019-03-11T20:41:10.933Z,2.10
2019-03-11T20:43:38.461Z,2.67
2019-03-11T20:46:05.959Z,3.00
2019-03-11T20:48:33.356Z,2.13
2019-03-11T20:51:01.014Z,2.50
2019-03-11T20:53:28.556Z,2.63
2019-03-11T20:55:56.014Z,3.20
2019-03-11T20:58:23.720Z,2.83
2019-03-11T21:00:51.391Z,2.90
2019-03-11T21:03:18.971Z,2.63
2019-03-11T21:05:46.518Z,2.80
2019-03-11T21:08:14.144Z,3.50
2019-03-11T21:10:41.721Z,3.13
2019-03-11T21:13:09.454Z,3.27
2019-03-11T21:15:37.067Z,3.50
2019-03-11T21:18:04.617Z,3.43
2019-03-11T21:20:32.370Z,3.73
2019-03-11T21:23:00.051Z,3.50
2019-03-11T21:25:27.881Z,3.60
2019-03-11T21:27:55.658Z,3.23
2019-03-11T21:30:24.487Z,2.97
2019-03-11T21:32:52.246Z,3.70
2019-03-11T21:35:19.932Z,3.67
2019-03-11T21:37:47.622Z,3.77
2019-03-11T21:40:15.950Z,3.80
2019-03-11T21:42:44.022Z,3.63
2019-03-11T21:45:12.788Z,5.60
2019-03-11T21:47:40.365Z,6.80
2019-03-11T21:50:11.725Z,6.03
2019-03-11T21:52:39.318Z,4.43
2019-03-11T21:55:06.997Z,3.97
2019-03-11T21:57:34.774Z,3.97
2019-03-11T22:00:02.440Z,5.60
2019-03-11T22:02:31.758Z,3.70
2019-03-11T22:04:59.224Z,4.40
2019-03-11T22:07:26.798Z,3.33
2019-03-11T22:09:54.449Z,3.53
2019-03-11T22:12:21.876Z,3.20
2019-03-11T22:14:49.456Z,3.20
2019-03-11T22:17:17.053Z,3.77
2019-03-11T22:19:44.485Z,3.80
2019-03-11T22:22:12.064Z,3.60
2019-03-11T22:24:39.986Z,3.63
2019-03-11T22:27:07.602Z,3.30
2019-03-11T22:29:35.090Z,3.17
2019-03-11T22:32:02.606Z,3.40
2019-03-11T22:34:30.158Z,4.07
2019-03-11T22:36:57.679Z,3.60
2019-03-11T22:39:25.069Z,4.00
2019-03-11T22:41:52.908Z,4.30
2019-03-11T22:44:20.477Z,4.10
2019-03-11T22:46:48.133Z,4.00
2019-03-11T22:49:15.633Z,4.53
2019-03-11T22:51:43.015Z,4.10
2019-03-11T22:54:10.708Z,4.07
2019-03-11T22:56:38.438Z,4.37
2019-03-11T22:59:06.117Z,4.63
2019-03-11T23:01:33.925Z,4.97
2019-03-11T23:04:01.784Z,4.33
2019-03-11T23:06:29.449Z,5.20
2019-03-11T23:08:57.185Z,4.43
2019-03-11T23:11:24.806Z,4.10
2019-03-11T23:13:52.447Z,4.37
2019-03-11T23:16:22.153Z,4.60
2019-03-11T23:18:49.814Z,4.40
2019-03-11T23:21:17.235Z,4.47
2019-03-11T23:23:44.929Z,3.60
2019-03-11T23:26:12.757Z,4.17
2019-03-11T23:28:40.505Z,4.00
2019-03-11T23:31:08.048Z,3.70
2019-03-11T23:33:35.741Z,3.80
2019-03-11T23:36:06.978Z,3.97
2019-03-11T23:38:33.166Z,3.87
2019-03-11T23:41:00.757Z,3.57
2019-03-11T23:43:28.438Z,3.27
2019-03-11T23:45:56.018Z,4.07
2019-03-11T23:48:23.585Z,3.27
2019-03-11T23:50:51.481Z,3.40
2019-03-11T23:53:19.062Z,3.93
2019-03-11T23:55:46.785Z,3.43
2019-03-11T23:58:14.374Z,3.40
